Detalii statie Transavia Sâmboleni [ENTEN005]

Toti senzorii

Date Temperatura solului [C]Precipitatii [mm]Viteza vantului [m/s]Voltaj baterie [mV]Leaf Wetness [Min]HC Air temperature [C]HC Relative humidity [%]Punctul de roua [C]
medieminmaxsumasumaultimatimpmedieminmaxmediemediemin
2017-06-25 06:04:08 15.89 15.83 15.99 0.00 0.00 8.40 100.00 11.22 10.92 11.51 94.38 10.34
2017-06-25 07:04:06 16.17 15.96 16.44 0.00 0.00 8.44 100.00 13.40 11.94 14.88 94.60 12.56
2017-06-25 08:04:07 17.04 16.65 17.47 0.00 0.00 8.46 99.86 17.40 15.90 18.71 89.02 15.56
2017-06-25 09:04:08 18.49 17.88 19.15 0.00 4.38 8.48 0.00 20.50 19.16 21.80 78.69 16.66
2017-06-25 10:04:07 20.82 19.72 21.98 0.00 3.88 8.48 0.00 23.50 22.55 24.30 68.25 17.30
2017-06-25 11:04:06 23.48 22.73 24.22 0.00 4.15 8.50 0.00 25.64 25.10 26.03 59.94 17.26
2017-06-25 12:04:07 25.62 24.57 26.45 0.00 5.96 8.50 0.00 27.33 26.91 27.69 52.40 16.73
2017-06-25 13:04:08 27.42 26.84 27.66 0.00 4.57 8.51 0.00 28.30 28.06 28.56 48.32 16.34
2017-06-25 14:04:06 28.34 27.86 28.63 0.00 3.86 8.51 0.00 28.80 28.49 29.37 45.00 15.68
2017-06-25 15:04:07 29.09 27.63 30.55 0.00 3.25 8.52 0.00 29.10 28.54 29.38 42.68 15.14
2017-06-25 16:04:06 32.69 31.70 33.34 0.00 4.97 8.52 0.00 29.81 29.72 29.88 42.88 15.84
2017-06-25 17:04:07 33.86 33.53 34.11 0.00 4.60 8.52 0.00 30.28 30.10 30.41 42.35 16.07
2017-06-25 18:04:08 33.43 32.70 33.92 0.00 4.19 8.52 0.00 30.47 30.23 30.70 42.06 16.14
2017-06-25 19:04:06 30.91 29.79 32.19 0.00 3.88 8.52 0.00 29.60 29.01 30.60 44.81 16.34
2017-06-25 20:04:07 28.11 26.98 29.23 0.00 4.34 8.52 0.00 28.06 27.38 28.60 49.96 16.66
2017-06-25 21:04:06 25.51 24.66 26.38 0.00 0.75 8.51 0.00 25.85 24.36 26.86 54.98 16.08
2017-06-25 22:04:07 23.48 22.89 24.12 0.00 0.00 8.49 0.00 21.66 20.66 22.98 71.79 16.33
2017-06-25 23:04:08 22.10 21.65 22.57 0.00 0.00 8.48 0.00 19.14 18.47 19.86 81.43 15.88
2017-06-26 00:04:06 21.12 20.82 21.41 0.00 0.00 8.47 2.14 17.72 17.26 18.11 86.06 15.35
2017-06-26 01:04:07 20.38 20.09 20.70 0.00 0.00 8.46 6.43 16.72 16.42 17.07 88.54 14.82
2017-06-26 02:04:08 19.98 19.82 20.12 0.00 0.61 8.44 3.36 17.25 16.81 17.58 89.74 15.55
2017-06-26 03:04:06 19.53 19.36 19.71 0.00 0.07 8.43 5.79 16.97 16.52 17.36 90.34 15.38
2017-06-26 04:04:07 19.12 19.03 19.26 0.00 1.02 8.42 5.86 16.42 16.14 16.97 92.13 15.14
2017-06-26 05:04:08 19.32 19.19 19.43 0.00 1.33 8.40 0.00 17.90 17.43 18.18 91.61 16.52
2017-06-26 06:04:06 19.07 18.97 19.20 0.00 0.43 8.39 3.93 17.47 17.24 17.64 91.36 16.04
2017-06-26 07:04:07 19.10 18.97 19.23 0.00 0.57 8.44 0.43 17.83 17.38 18.38 92.20 16.54
2017-06-26 08:04:08 19.94 19.48 20.32 0.00 1.59 8.47 0.00 19.67 19.08 20.44 88.57 17.72
2017-06-26 09:04:07 21.11 20.54 21.54 0.00 1.04 8.48 0.00 22.79 21.35 23.78 77.74 18.68
2017-06-26 10:04:06 22.93 22.20 23.51 0.00 1.07 8.49 0.00 24.96 24.73 25.16 67.94 18.62
2017-06-26 11:04:07 23.71 23.67 23.75 0.00 2.14 8.49 0.00 24.66 24.29 25.27 68.02 18.36
2017-06-26 12:04:06 25.36 23.99 26.72 0.00 2.40 8.50 0.00 25.52 24.55 26.55 66.32 18.77
2017-06-26 13:04:07 28.41 27.58 29.17 0.00 3.44 8.51 0.00 27.58 27.20 27.82 58.69 18.77
2017-06-26 14:04:06 31.03 29.79 31.81 0.00 3.82 8.51 0.00 28.60 28.17 28.94 55.28 18.74
2017-06-26 15:04:08 30.62 29.64 31.17 0.00 4.39 8.48 0.00 28.41 28.02 29.36 53.85 18.16
2017-06-26 16:04:07 28.58 26.48 30.62 0.00 7.19 8.50 0.21 24.48 22.00 28.90 63.13 16.92
2017-06-26 17:04:08 25.63 25.20 25.90 0.00 2.99 8.51 26.50 22.56 22.16 22.80 75.90 18.09
2017-06-26 18:04:07 25.88 25.41 26.40 0.00 3.55 8.51 4.93 22.68 22.62 22.82 80.00 19.06
2017-06-26 19:04:08 24.93 24.77 25.11 0.00 5.75 8.51 0.00 22.50 22.44 22.62 81.00 19.08
2017-06-26 20:04:06 24.18 23.80 24.56 0.00 2.79 8.50 0.00 22.11 21.86 22.32 79.60 18.42
2017-06-26 21:04:07 22.79 22.26 23.42 0.20 3.23 8.49 89.21 20.86 19.94 21.68 84.67 18.18
2017-06-26 22:04:05 21.76 21.54 22.01 0.00 0.42 8.48 95.86 19.24 18.93 19.52 89.18 17.41
2017-06-26 23:04:06 21.21 20.96 21.48 0.20 0.18 8.47 78.21 18.74 18.46 19.14 91.58 17.34
2017-06-27 00:04:07 20.76 20.40 20.95 0.00 0.22 8.45 83.50 18.25 17.78 18.52 92.48 17.01
2017-06-27 01:04:05 20.02 19.82 20.23 0.00 0.00 8.44 91.43 17.08 16.85 17.38 92.96 15.93
2017-06-27 02:04:06 19.38 19.13 19.64 0.00 0.00 8.43 93.71 16.20 15.81 16.61 93.47 15.14
2017-06-27 03:04:07 18.76 18.64 18.96 0.00 0.00 8.41 93.21 15.32 15.18 15.52 94.16 14.39
2017-06-27 04:04:05 18.52 18.50 18.56 0.00 0.00 8.40 99.43 15.11 15.00 15.17 94.52 14.24
2017-06-27 05:04:06 18.50 18.48 18.50 0.00 0.00 8.38 96.79 15.07 14.99 15.11 94.96 14.27
2017-06-27 06:04:07 18.49 18.42 18.57 0.00 0.00 8.37 90.93 15.26 15.15 15.46 95.26 14.50